Time;durP1;ratioP1;P1;durP2;ratioP2;P2;SDS_P1;SDS_P2;PMS_P1;PMS_P2;Temp;Humidity;BMP_temperature;BMP_pressure;BME280_temperature;BME280_humidity;BME280_pressure;Samples;Min_cycle;Max_cycle;Signal;HPM_P1;HPM_P2
2022/05/07 00:02:28;;;;;;;32.67;13.43;;;;;;;11.75;40.98;101342.16;126125;1098;104166;-75
2022/05/07 00:05:00;;;;;;;29.80;14.37;;;;;;;11.72;41.03;101343.73;124859;1098;104504;-75
2022/05/07 00:07:32;;;;;;;32.83;13.40;;;;;;;11.72;41.07;101343.73;124859;1099;104211;-75
2022/05/07 00:10:04;;;;;;;28.43;13.20;;;;;;;11.67;41.18;101336.55;124856;1099;104721;-75
2022/05/07 00:12:36;;;;;;;30.07;13.27;;;;;;;11.63;41.30;101337.23;124818;1098;104810;-75
2022/05/07 00:15:09;;;;;;;35.33;13.47;;;;;;;11.60;41.61;101333.58;124783;1099;104281;-75
2022/05/07 00:20:32;;;;;;;30.13;11.73;;;;;;;11.54;41.56;101322.80;124888;1099;110613;-76
2022/05/07 00:23:05;;;;;;;28.60;12.28;;;;;;;11.48;41.82;101319.06;124907;1099;104143;-75
2022/05/07 00:25:36;;;;;;;30.63;13.33;;;;;;;11.39;41.84;101310.77;124861;1099;104170;-75
2022/05/07 00:28:10;;;;;;;29.47;12.13;;;;;;;11.41;41.98;101318.72;124841;1099;104643;-75
2022/05/07 00:30:42;;;;;;;28.90;13.47;;;;;;;11.35;42.26;101321.95;124909;1099;104171;-75
2022/05/07 00:33:15;;;;;;;32.97;13.80;;;;;;;11.30;42.31;101318.23;124878;1099;104721;-75
2022/05/07 00:35:46;;;;;;;32.37;13.60;;;;;;;11.26;42.34;101311.02;124928;1099;104235;-75
2022/05/07 00:38:19;;;;;;;33.17;13.73;;;;;;;11.24;42.56;101315.32;124801;1099;102823;-74
2022/05/07 00:40:53;;;;;;;33.00;14.07;;;;;;;11.21;42.67;101318.69;124856;1099;104160;-76
2022/05/07 00:43:25;;;;;;;29.30;13.43;;;;;;;11.18;42.64;101325.55;125829;1099;101916;-75
2022/05/07 00:45:57;;;;;;;28.30;13.53;;;;;;;11.13;42.95;101318.34;124800;1099;104169;-76
2022/05/07 00:48:30;;;;;;;31.13;13.93;;;;;;;11.12;42.89;101313.90;124821;1099;104258;-75
2022/05/07 00:53:52;;;;;;;30.70;13.47;;;;;;;11.06;42.96;101308.36;124806;1097;104198;-75
2022/05/07 00:56:23;;;;;;;33.80;13.70;;;;;;;11.06;43.00;101310.98;124885;1099;104163;-76
2022/05/07 00:58:55;;;;;;;32.47;14.30;;;;;;;11.02;43.33;101308.18;124787;1099;102621;-75
2022/05/07 01:01:28;;;;;;;30.95;13.40;;;;;;;10.99;43.91;101301.05;124768;1099;103224;-76
2022/05/07 01:04:02;;;;;;;30.23;13.43;;;;;;;10.99;43.79;101301.05;124362;1099;102586;-75
2022/05/07 01:06:39;;;;;;;30.13;13.20;;;;;;;10.97;44.16;101298.34;124820;1099;102369;-75
2022/05/07 01:09:13;;;;;;;33.13;14.00;;;;;;;10.99;44.06;101302.78;124806;1099;104281;-76
2022/05/07 01:11:45;;;;;;;29.10;13.77;;;;;;;10.99;43.83;101302.78;124819;1099;111911;-75
2022/05/07 01:14:17;;;;;;;34.97;13.73;;;;;;;10.96;44.56;101299.16;124745;1099;104941;-75
2022/05/07 01:16:50;;;;;;;30.53;13.50;;;;;;;10.95;44.56;101300.02;124725;1098;103213;-75
2022/05/07 01:19:22;;;;;;;34.95;13.65;;;;;;;10.96;44.38;101304.41;124815;1099;104229;-76
2022/05/07 01:21:54;;;;;;;31.83;13.43;;;;;;;10.95;44.03;101299.09;124769;1099;104240;-75
2022/05/07 01:24:27;;;;;;;30.37;12.40;;;;;;;10.92;44.29;101304.20;124727;1099;104315;-75
2022/05/07 01:26:59;;;;;;;30.00;13.27;;;;;;;10.92;44.58;101304.20;124356;1099;102858;-76
2022/05/07 01:29:32;;;;;;;30.77;13.53;;;;;;;10.93;44.31;101306.01;124755;1099;104916;-75
2022/05/07 01:32:04;;;;;;;27.53;12.57;;;;;;;10.91;44.33;101312.92;124806;1099;108180;-75
2022/05/07 01:34:36;;;;;;;28.50;12.53;;;;;;;10.89;44.51;101307.59;124801;1099;103565;-75
2022/05/07 01:37:08;;;;;;;28.07;12.73;;;;;;;10.88;44.48;101312.78;124865;1099;104195;-75
2022/05/07 01:39:39;;;;;;;28.67;12.73;;;;;;;10.86;44.78;101310.08;124900;1099;104153;-75
2022/05/07 01:42:11;;;;;;;29.20;12.33;;;;;;;10.84;45.15;101316.08;124723;1098;104354;-75
2022/05/07 01:44:43;;;;;;;27.83;11.93;;;;;;;10.81;44.71;101315.92;124773;1099;102915;-76
2022/05/07 01:50:06;;;;;;;32.10;12.43;;;;;;;10.73;44.81;101311.20;124826;1099;104172;-75
2022/05/07 01:52:37;;;;;;;26.60;12.30;;;;;;;10.67;45.45;101312.64;124749;1099;104319;-75
2022/05/07 01:55:10;;;;;;;31.10;12.00;;;;;;;10.62;45.58;101304.54;124774;1099;104232;-75
2022/05/07 01:57:42;;;;;;;31.75;13.15;;;;;;;10.56;45.51;101306.86;124878;1099;104233;-75
2022/05/07 02:00:16;;;;;;;28.07;13.13;;;;;;;10.50;45.05;101306.56;124773;1099;104294;-75
2022/05/07 02:02:49;;;;;;;30.90;13.63;;;;;;;10.43;45.83;101306.27;124822;1099;104166;-76
2022/05/07 02:05:26;;;;;;;28.63;12.77;;;;;;;10.38;45.56;101307.77;124780;1099;102833;-76
2022/05/07 02:07:58;;;;;;;31.67;13.23;;;;;;;10.36;45.96;101311.13;124751;1099;104153;-75
2022/05/07 02:10:32;;;;;;;29.50;12.23;;;;;;;10.32;45.48;101309.17;124793;1099;104340;-76
2022/05/07 02:13:05;;;;;;;31.77;12.87;;;;;;;10.31;46.20;101312.61;124724;1099;104284;-75
2022/05/07 02:15:38;;;;;;;29.70;12.20;;;;;;;10.31;45.73;101313.49;124849;1099;103246;-76
2022/05/07 02:18:10;;;;;;;35.23;12.57;;;;;;;10.30;45.86;101311.72;124818;1099;104153;-75
2022/05/07 02:20:42;;;;;;;31.70;12.47;;;;;;;10.30;45.74;101316.04;124845;1096;102994;-76
2022/05/07 02:23:17;;;;;;;25.83;11.70;;;;;;;10.28;45.83;101315.08;124843;1099;104185;-75
2022/05/07 02:25:48;;;;;;;25.45;11.55;;;;;;;10.27;46.38;101306.31;124831;1099;104267;-75
2022/05/07 02:28:20;;;;;;;30.77;11.90;;;;;;;10.28;46.69;101318.59;125867;1098;104153;-76
2022/05/07 02:30:52;;;;;;;26.67;12.40;;;;;;;10.27;46.59;101311.56;124898;1099;104179;-76
2022/05/07 02:33:24;;;;;;;29.50;12.55;;;;;;;10.25;46.39;101315.81;124897;1096;118272;-75
2022/05/07 02:35:56;;;;;;;27.93;12.50;;;;;;;10.21;46.71;101314.77;124865;1096;102421;-75
2022/05/07 02:38:28;;;;;;;30.50;12.77;;;;;;;10.21;46.29;101316.50;124841;1099;102788;-75
2022/05/07 02:43:49;;;;;;;29.27;12.60;;;;;;;10.20;46.18;101322.56;124839;1099;104290;-76
2022/05/07 02:46:22;;;;;;;28.17;12.60;;;;;;;10.18;46.52;101326.84;124826;1099;103694;-76
2022/05/07 02:48:54;;;;;;;26.53;12.03;;;;;;;10.12;46.66;101324.80;124760;1099;104172;-76
2022/05/07 02:51:26;;;;;;;28.27;12.63;;;;;;;10.07;47.46;101331.53;124853;1099;102433;-76
2022/05/07 02:53:57;;;;;;;28.17;12.43;;;;;;;10.04;46.95;101329.65;124800;1099;102874;-75
2022/05/07 02:56:31;;;;;;;29.63;12.40;;;;;;;10.04;46.87;101326.14;124884;1096;104165;-76
2022/05/07 02:59:02;;;;;;;27.13;12.77;;;;;;;10.04;47.58;101323.52;124879;1099;102114;-75
2022/05/07 03:01:35;;;;;;;31.33;13.10;;;;;;;10.04;47.14;101324.41;124867;1099;102915;-76
2022/05/07 03:04:07;;;;;;;31.03;13.13;;;;;;;10.04;47.26;101319.16;124391;1099;102921;-75
2022/05/07 03:06:39;;;;;;;29.73;12.50;;;;;;;10.10;47.88;101325.52;124846;1099;104256;-75
2022/05/07 03:09:13;;;;;;;28.83;12.93;;;;;;;10.12;48.00;101324.80;124839;1099;104271;-75
2022/05/07 03:11:45;;;;;;;29.20;12.73;;;;;;;10.15;47.41;101326.68;124828;1098;104156;-75
2022/05/07 03:14:20;;;;;;;29.77;12.80;;;;;;;10.19;47.38;101326.91;124836;1099;104322;-75
2022/05/07 03:16:53;;;;;;;29.40;12.60;;;;;;;10.24;47.64;101329.77;124829;1099;104130;-76
2022/05/07 03:19:25;;;;;;;29.73;12.97;;;;;;;10.26;47.74;101328.11;124952;1099;103287;-76
2022/05/07 03:21:56;;;;;;;31.73;13.33;;;;;;;10.29;47.79;101319.51;124774;1099;101844;-75
2022/05/07 03:24:30;;;;;;;29.93;12.83;;;;;;;10.34;47.84;101321.55;124897;1099;102261;-76
2022/05/07 03:27:05;;;;;;;27.70;12.27;;;;;;;10.40;47.95;101318.34;124835;1099;102449;-76
2022/05/07 03:29:39;;;;;;;28.37;12.17;;;;;;;10.47;47.74;101309.96;124730;1099;104198;-76
2022/05/07 03:32:21;;;;;;;37.40;13.03;;;;;;;10.55;48.09;101315.55;124782;1099;104484;-76
2022/05/07 03:34:57;;;;;;;28.57;12.47;;;;;;;10.61;47.78;101318.48;124742;1099;101816;-76
2022/05/07 03:37:29;;;;;;;27.47;12.30;;;;;;;10.67;47.93;101323.14;124837;1099;104163;-75
2022/05/07 03:40:01;;;;;;;32.67;13.20;;;;;;;10.72;48.02;101322.55;124698;1099;104290;-76
2022/05/07 03:42:35;;;;;;;28.60;12.87;;;;;;;10.73;48.25;101324.32;124411;1099;104990;-75
2022/05/07 03:45:06;;;;;;;;;;;;;;;10.76;48.28;101323.58;124410;1099;112563;-75
2022/05/07 03:47:40;;;;;;;35.50;13.27;;;;;;;10.85;48.10;101323.14;124756;1099;102890;-75
2022/05/07 03:50:17;;;;;;;25.43;11.93;;;;;;;10.95;48.54;101317.47;124304;1099;104338;-75
2022/05/07 03:55:50;;;;;;;29.13;13.13;;;;;;;11.13;48.19;101315.71;124300;1102;104162;-76
2022/05/07 03:58:31;;;;;;;30.53;12.87;;;;;;;11.23;48.22;101327.53;124444;1101;104274;-75
2022/05/07 04:01:03;;;;;;;32.77;13.67;;;;;;;11.34;48.31;101328.03;124697;1099;104316;-76
2022/05/07 04:03:37;;;;;;;29.37;13.83;;;;;;;11.42;48.49;101318.79;124409;1099;103805;-75
2022/05/07 04:06:10;;;;;;;25.50;13.35;;;;;;;11.54;48.16;101317.53;124635;1099;107941;-75
2022/05/07 04:08:41;;;;;;;;;;;;;;;11.63;48.15;101315.32;124888;1099;103697;-76
2022/05/07 04:11:13;;;;;;;30.60;13.30;;;;;;;11.74;48.52;101314.05;124786;1099;105063;-76
2022/05/07 04:13:44;;;;;;;30.23;12.70;;;;;;;11.85;48.52;101315.41;124748;1099;104227;-75
2022/05/07 04:16:16;;;;;;;28.83;13.10;;;;;;;11.94;48.21;101320.22;124835;1099;103583;-76
2022/05/07 04:18:58;;;;;;;;;;;;;;;12.05;48.82;101326.83;124680;1099;102086;-75
2022/05/07 04:21:30;;;;;;;30.80;13.20;;;;;;;12.15;48.41;101319.33;124976;1099;101865;-76
2022/05/07 04:24:10;;;;;;;27.87;11.90;;;;;;;12.25;48.04;101321.53;124854;1100;104954;-75
2022/05/07 04:26:44;;;;;;;25.23;11.33;;;;;;;12.38;47.94;101312.40;124945;1099;104227;-75
2022/05/07 04:29:16;;;;;;;30.33;11.43;;;;;;;12.43;47.44;101310.84;124930;1098;104208;-76
2022/05/07 04:31:50;;;;;;;25.00;11.47;;;;;;;12.48;47.25;101306.69;124964;1098;102802;-75
2022/05/07 04:34:23;;;;;;;23.17;10.27;;;;;;;12.54;46.80;101314.84;124828;1099;102763;-75
2022/05/07 04:36:56;;;;;;;23.23;10.50;;;;;;;12.62;47.05;101314.23;124804;1099;104225;-75
2022/05/07 04:39:30;;;;;;;24.87;10.77;;;;;;;12.70;47.37;101312.80;124855;1099;104223;-76
2022/05/07 04:42:07;;;;;;;23.70;10.90;;;;;;;12.81;47.30;101305.32;124880;1099;104226;-76
2022/05/07 04:44:51;;;;;;;23.27;10.67;;;;;;;12.88;46.67;101320.55;124804;1099;104165;-75
2022/05/07 04:47:29;;;;;;;23.53;10.20;;;;;;;12.92;46.29;101320.72;124823;1099;104204;-75
2022/05/07 04:50:01;;;;;;;25.37;10.20;;;;;;;12.97;46.32;101322.66;124816;1099;104826;-75
2022/05/07 04:52:40;;;;;;;23.93;10.17;;;;;;;13.02;45.79;101323.72;124826;1099;102888;-76
2022/05/07 04:55:12;;;;;;;21.40;9.80;;;;;;;13.08;45.98;101326.59;124821;1098;102913;-75
2022/05/07 04:57:45;;;;;;;23.63;10.20;;;;;;;13.18;46.16;101333.99;124862;1099;104334;-76
2022/05/07 05:00:21;;;;;;;22.70;10.10;;;;;;;13.28;46.25;101330.88;124784;1099;104310;-75
2022/05/07 05:02:59;;;;;;;24.43;10.37;;;;;;;13.41;45.92;101331.38;124871;1099;104160;-76
2022/05/07 05:05:31;;;;;;;24.70;10.10;;;;;;;13.54;45.75;101336.28;124845;1099;104175;-75
2022/05/07 05:08:09;;;;;;;22.37;10.10;;;;;;;13.62;45.57;101334.81;124421;1099;104351;-75
2022/05/07 05:10:41;;;;;;;25.37;9.70;;;;;;;13.71;45.52;101334.23;124364;1102;104306;-75
2022/05/07 05:13:13;;;;;;;23.33;10.73;;;;;;;13.80;45.85;101341.59;124729;1099;102676;-75
2022/05/07 05:15:50;;;;;;;22.80;10.63;;;;;;;13.87;45.67;101346.25;124322;1099;104383;-75
2022/05/07 05:18:33;;;;;;;24.30;10.78;;;;;;;13.93;45.67;101349.11;124438;1099;104366;-75
2022/05/07 05:21:05;;;;;;;20.30;10.33;;;;;;;14.00;45.39;101344.94;124381;1099;102269;-76
2022/05/07 05:23:51;;;;;;;19.60;9.57;;;;;;;14.03;45.08;101348.57;124823;1099;103131;-75
2022/05/07 05:26:24;;;;;;;22.58;8.88;;;;;;;14.07;44.88;101352.23;124682;1099;104357;-75
2022/05/07 05:28:59;;;;;;;22.00;9.17;;;;;;;14.11;44.63;101355.87;124374;1102;102906;-75
2022/05/07 05:31:32;;;;;;;23.00;9.30;;;;;;;14.16;44.81;101349.92;124829;1099;102990;-75
2022/05/07 05:34:09;;;;;;;24.30;9.33;;;;;;;14.24;44.53;101358.08;124402;1102;104223;-75
2022/05/07 05:36:50;;;;;;;23.43;10.70;;;;;;;14.34;44.87;101360.20;124807;1099;104050;-75
2022/05/07 05:39:22;;;;;;;25.15;10.38;;;;;;;14.42;44.50;101363.09;124886;1098;104191;-75
2022/05/07 05:41:54;;;;;;;;;;;;;;;14.45;43.45;101357.92;124829;1098;104318;-76
2022/05/07 05:44:27;;;;;;;21.73;8.90;;;;;;;14.49;44.08;101367.75;124973;1099;102865;-75
2022/05/07 05:46:58;;;;;;;20.27;8.90;;;;;;;14.51;44.62;101358.13;124918;1097;104159;-75
2022/05/07 05:49:31;;;;;;;23.43;8.77;;;;;;;14.55;43.85;101362.67;124902;1099;104153;-75
2022/05/07 05:52:03;;;;;;;19.53;8.63;;;;;;;14.61;43.96;101361.11;124913;1098;104239;-75
2022/05/07 05:54:36;;;;;;;23.10;9.40;;;;;;;14.69;43.63;101363.16;125012;1099;102345;-75
2022/05/07 05:57:09;;;;;;;18.70;7.87;;;;;;;14.77;43.89;101368.66;124904;1099;104179;-76
2022/05/07 05:59:41;;;;;;;17.23;7.40;;;;;;;14.86;43.67;101374.25;124883;1099;104357;-75
2022/05/07 06:02:14;;;;;;;15.03;6.77;;;;;;;14.96;43.51;101372.82;124772;1099;104236;-75
2022/05/07 06:04:56;;;;;;;13.27;5.53;;;;;;;15.05;43.45;101369.55;124892;1099;104264;-75
2022/05/07 06:07:30;;;;;;;15.07;6.20;;;;;;;15.14;44.11;101369.84;124829;1099;104319;-75
2022/05/07 06:10:06;;;;;;;17.57;6.23;;;;;;;15.25;43.44;101372.81;124381;1099;104281;-75
2022/05/07 06:12:38;;;;;;;16.03;6.30;;;;;;;15.35;43.48;101372.25;124770;1099;104172;-76
2022/05/07 06:15:13;;;;;;;14.10;5.70;;;;;;;15.44;42.85;101375.17;124407;1099;104303;-75
2022/05/07 06:17:46;;;;;;;19.00;7.10;;;;;;;15.56;43.08;101365.80;124842;1099;103200;-75
2022/05/07 06:20:18;;;;;;;16.48;6.53;;;;;;;15.66;42.70;101366.95;124905;1099;104210;-76
2022/05/07 06:22:58;;;;;;;17.77;6.63;;;;;;;15.77;43.69;101366.45;124936;1099;104864;-75
2022/05/07 06:28:22;;;;;;;19.03;7.17;;;;;;;16.07;42.76;101370.80;124734;1099;104270;-75
2022/05/07 06:30:54;;;;;;;15.75;6.90;;;;;;;16.15;43.35;101368.34;124892;1099;104239;-75
2022/05/07 06:33:28;;;;;;;18.77;6.87;;;;;;;16.24;42.72;101370.36;124857;1099;104306;-75
2022/05/07 06:36:04;;;;;;;18.60;6.87;;;;;;;16.31;42.36;101367.91;124907;1099;102849;-76
2022/05/07 06:38:40;;;;;;;16.80;6.50;;;;;;;16.38;42.97;101370.69;124813;1099;103334;-76
2022/05/07 06:41:15;;;;;;;16.00;6.63;;;;;;;16.47;42.18;101366.55;124869;1098;104220;-76
2022/05/07 06:43:58;;;;;;;18.43;7.20;;;;;;;16.56;42.42;101364.98;124936;1099;104236;-76
2022/05/07 06:46:35;;;;;;;17.47;6.60;;;;;;;16.63;42.72;101362.52;124880;1099;104242;-76
2022/05/07 06:49:10;;;;;;;15.80;7.00;;;;;;;16.73;42.39;101368.93;124920;1099;102301;-76
2022/05/07 06:52:01;;;;;;;18.77;6.70;;;;;;;16.87;42.41;101369.30;125015;1099;104204;-76
2022/05/07 06:54:33;;;;;;;16.65;6.60;;;;;;;17.02;41.96;101367.01;124911;1099;104172;-76
2022/05/07 06:57:06;;;;;;;16.67;6.77;;;;;;;17.18;41.69;101368.25;124956;1099;104121;-76
2022/05/07 06:59:38;;;;;;;19.30;7.00;;;;;;;17.30;41.56;101366.75;124951;1099;111924;-76
2022/05/07 07:02:11;;;;;;;19.60;7.00;;;;;;;17.43;41.78;101363.48;125038;1099;102300;-75
2022/05/07 07:04:44;;;;;;;18.50;6.97;;;;;;;17.64;41.27;101362.13;124974;1098;102253;-75
2022/05/07 07:07:16;;;;;;;16.50;6.22;;;;;;;17.77;41.60;101358.87;124886;1099;104277;-76
2022/05/07 07:09:49;;;;;;;17.90;6.50;;;;;;;17.93;40.83;101353.01;124871;1099;104278;-76
2022/05/07 07:12:21;;;;;;;15.25;6.30;;;;;;;18.03;40.58;101359.41;124908;1099;102822;-76
2022/05/07 07:14:53;;;;;;;15.17;5.97;;;;;;;18.17;40.24;101357.02;126023;1098;104235;-76
2022/05/07 07:17:42;;;;;;;18.80;6.83;;;;;;;18.29;39.75;101349.27;127299;1098;102291;-76
2022/05/07 07:20:32;;;;;;;15.33;6.30;;;;;;;18.49;39.89;101346.03;124869;1098;108367;-76
2022/05/07 07:23:22;;;;;;;16.70;6.10;;;;;;;18.64;38.94;101351.61;124859;1099;104261;-75
2022/05/07 07:26:13;;;;;;;16.10;6.27;;;;;;;18.82;38.85;101350.09;124920;1099;104205;-76
2022/05/07 07:29:02;;;;;;;13.57;6.17;;;;;;;18.96;38.10;101343.25;125015;1099;104223;-76
2022/05/07 07:31:52;;;;;;;12.20;6.00;;;;;;;19.13;37.38;101353.25;124926;1099;104185;-76
2022/05/07 07:34:42;;;;;;;15.53;6.13;;;;;;;19.18;36.57;101348.87;125643;1099;102299;-76
2022/05/07 07:37:33;;;;;;;17.13;6.43;;;;;;;19.15;36.48;101343.52;125252;1098;102717;-76
2022/05/07 07:40:21;;;;;;;15.07;5.80;;;;;;;19.26;35.51;101346.32;124959;1098;104220;-76
2022/05/07 07:43:11;;;;;;;10.60;5.35;;;;;;;19.42;35.93;101342.13;125013;1099;102791;-75
2022/05/07 07:49:07;;;;;;;14.93;5.50;;;;;;;19.81;34.98;101339.05;124902;1099;104197;-76
2022/05/07 07:51:56;;;;;;;14.90;5.73;;;;;;;20.03;35.88;101341.95;125069;1099;104220;-75
2022/05/07 07:54:47;;;;;;;12.27;5.50;;;;;;;20.14;34.56;101352.72;125765;1098;104166;-76
2022/05/07 08:00:42;;;;;;;10.90;5.40;;;;;;;20.00;33.92;101347.25;124844;1099;104620;-76
2022/05/07 08:03:15;;;;;;;14.30;5.90;;;;;;;19.97;34.01;101348.09;124660;1099;104332;-76
2022/05/07 08:05:49;;;;;;;14.05;5.85;;;;;;;20.15;34.56;101346.48;124310;1099;102772;-76
2022/05/07 08:14:01;;;;;;;13.00;5.60;;;;;;;20.37;33.26;101334.28;125113;1099;102129;-76
2022/05/07 08:16:33;;;;;;;13.50;5.10;;;;;;;20.50;33.43;101335.27;125216;1099;104274;-76
2022/05/07 08:19:06;;;;;;;15.67;5.83;;;;;;;20.65;32.98;101330.09;125144;1099;104323;-76
2022/05/07 08:21:38;;;;;;;12.20;5.10;;;;;;;20.82;32.87;101331.09;125023;1099;112823;-76
2022/05/07 08:24:10;;;;;;;11.70;5.40;;;;;;;21.04;33.73;101325.89;125317;1098;104259;-77
2022/05/07 08:26:41;;;;;;;14.90;5.20;;;;;;;21.09;32.00;101326.80;125058;1099;102931;-76
2022/05/07 08:29:20;;;;;;;13.60;5.60;;;;;;;21.22;32.73;101337.55;125613;1099;102494;-77
2022/05/07 08:31:53;;;;;;;15.00;5.60;;;;;;;21.31;31.70;101325.13;124898;1098;104239;-76
2022/05/07 08:34:25;;;;;;;13.00;5.37;;;;;;;21.38;31.55;101320.73;125096;1099;104175;-75
2022/05/07 08:36:57;;;;;;;13.50;5.50;;;;;;;21.39;30.84;101322.49;125489;1099;102029;-76
2022/05/07 08:39:36;;;;;;;13.30;6.03;;;;;;;21.26;31.12;101320.67;125439;1099;104211;-77
2022/05/07 08:42:09;;;;;;;12.80;5.37;;;;;;;21.35;31.11;101320.72;125215;1099;107622;-76
2022/05/07 08:44:41;;;;;;;12.75;5.35;;;;;;;21.32;30.98;101312.69;125120;1099;104170;-76
2022/05/07 08:47:14;;;;;;;11.93;5.28;;;;;;;21.33;31.14;101317.12;124985;1099;104293;-76
2022/05/07 08:49:46;;;;;;;13.00;5.53;;;;;;;21.32;31.27;101315.36;125187;1099;104184;-76
2022/05/07 08:52:20;;;;;;;13.30;5.12;;;;;;;21.28;29.54;101316.22;125123;1099;104303;-76
2022/05/07 08:54:51;;;;;;;13.98;5.37;;;;;;;21.17;31.01;101319.72;124977;1099;104775;-76
2022/05/07 08:57:24;;;;;;;13.07;5.53;;;;;;;21.21;31.05;101306.39;125769;1099;101987;-76
2022/05/07 09:00:01;;;;;;;15.53;5.90;;;;;;;21.12;29.71;101317.93;125386;1099;104185;-76
2022/05/07 09:02:41;;;;;;;10.53;5.40;;;;;;;21.16;30.99;101303.70;126856;1099;101703;-76
2022/05/07 09:05:15;;;;;;;12.70;6.10;;;;;;;21.17;30.93;101311.71;126286;1099;102489;-76
2022/05/07 09:07:58;;;;;;;15.23;6.03;;;;;;;21.23;31.20;101310.86;125869;1099;102729;-76
2022/05/07 09:10:34;;;;;;;12.27;5.40;;;;;;;21.19;30.45;101314.39;125415;1099;104210;-76
2022/05/07 09:13:23;;;;;;;14.30;5.43;;;;;;;21.24;31.03;101311.74;125666;1099;111271;-77
2022/05/07 09:15:56;;;;;;;14.93;5.77;;;;;;;21.37;31.04;101297.58;125791;1098;104172;-76
2022/05/07 09:18:30;;;;;;;14.83;5.78;;;;;;;21.52;31.04;101296.78;125246;1099;102256;-76
2022/05/07 09:21:26;;;;;;;12.65;5.75;;;;;;;21.74;31.29;101300.41;125042;1099;104185;-76
2022/05/07 09:24:11;;;;;;;13.90;6.00;;;;;;;22.04;30.09;101301.34;126255;1098;104236;-76
2022/05/07 09:26:44;;;;;;;15.03;5.60;;;;;;;22.17;29.98;101281.73;125127;1099;104284;-77
2022/05/07 09:29:18;;;;;;;12.98;5.83;;;;;;;22.23;30.32;101289.75;125275;1099;104176;-76
2022/05/07 09:31:50;;;;;;;15.10;6.50;;;;;;;22.19;30.24;101293.33;125180;1099;104235;-76
2022/05/07 09:37:21;;;;;;;11.30;5.40;;;;;;;22.20;29.98;101286.20;124954;1099;104232;-76
2022/05/07 09:39:53;;;;;;;13.33;5.10;;;;;;;22.16;29.06;101279.97;125426;1099;104156;-76
2022/05/07 09:42:27;;;;;;;15.65;5.85;;;;;;;22.19;30.04;101284.41;125078;1098;102954;-76
2022/05/07 09:45:01;;;;;;;12.03;5.73;;;;;;;22.15;29.28;101277.30;126279;1098;104160;-76
2022/05/07 09:47:34;;;;;;;12.60;5.73;;;;;;;22.14;29.09;101270.16;125084;1097;102931;-77
2022/05/07 09:50:24;;;;;;;13.73;5.70;;;;;;;22.12;29.28;101269.27;125132;1099;102820;-76
2022/05/07 09:58:36;;;;;;;10.77;4.97;;;;;;;21.93;29.54;101268.38;125241;1099;104232;-76
2022/05/07 10:01:24;;;;;;;14.77;5.13;;;;;;;21.99;29.04;101266.59;125131;1098;104300;-76
2022/05/07 10:04:07;;;;;;;11.80;5.15;;;;;;;22.11;28.78;101259.46;125095;1099;104044;-76
2022/05/07 10:06:48;;;;;;;12.10;5.27;;;;;;;22.21;28.76;101259.46;126992;1098;101787;-76
2022/05/07 10:09:33;;;;;;;11.30;4.35;;;;;;;22.31;28.58;101256.82;125326;1099;102330;-77
2022/05/07 10:12:06;;;;;;;12.87;5.10;;;;;;;22.28;27.36;101251.45;125248;1099;102756;-76
2022/05/07 10:14:39;;;;;;;11.18;5.10;;;;;;;22.36;27.36;101241.66;125080;1099;104239;-76
2022/05/07 10:17:15;;;;;;;11.50;4.95;;;;;;;22.43;28.30;101240.77;125198;1099;104313;-77
2022/05/07 10:19:49;;;;;;;12.70;4.90;;;;;;;22.43;27.99;101238.09;126394;1098;102874;-76
2022/05/07 10:22:24;;;;;;;10.43;5.00;;;;;;;22.41;27.25;101234.55;125283;1099;104169;-76
2022/05/07 10:25:08;;;;;;;10.40;4.90;;;;;;;22.42;27.43;101234.54;125155;1099;104194;-76
2022/05/07 10:27:42;;;;;;;10.72;4.90;;;;;;;22.45;26.92;101238.97;125442;1098;104220;-76
2022/05/07 10:30:17;;;;;;;7.57;4.60;;;;;;;22.34;27.27;101230.97;125353;1098;104232;-77
2022/05/07 10:32:58;;;;;;;11.70;5.27;;;;;;;22.31;27.19;101230.09;126077;1099;104246;-76
2022/05/07 10:35:44;;;;;;;17.63;5.03;;;;;;;22.29;27.94;101223.83;125166;1099;104220;-76
2022/05/07 10:38:26;;;;;;;10.77;4.97;;;;;;;22.26;26.85;101224.71;125380;1099;102784;-76
2022/05/07 10:41:12;;;;;;;14.57;4.70;;;;;;;22.21;26.85;101222.05;125342;1098;104331;-76
2022/05/07 10:43:48;;;;;;;14.87;5.30;;;;;;;22.33;26.94;101229.20;125296;1099;102796;-77
2022/05/07 10:46:23;;;;;;;12.07;5.00;;;;;;;22.41;26.76;101221.17;124795;1099;104211;-76
2022/05/07 10:49:04;;;;;;;12.60;4.80;;;;;;;22.50;26.87;101221.16;125116;1099;104163;-76
2022/05/07 10:51:37;;;;;;;12.67;5.13;;;;;;;22.53;27.07;101217.56;126339;1098;104341;-77
2022/05/07 10:54:26;;;;;;;10.38;4.70;;;;;;;22.54;26.54;101208.66;125199;1099;102758;-76
2022/05/07 10:57:01;;;;;;;14.83;5.53;;;;;;;22.58;26.96;101211.32;126256;1099;102861;-76
2022/05/07 10:59:33;;;;;;;12.33;4.70;;;;;;;22.64;26.43;101204.16;125128;1099;104315;-76
2022/05/07 11:02:10;;;;;;;9.13;4.50;;;;;;;22.70;26.37;101207.70;125192;1099;104265;-76
2022/05/07 11:04:58;;;;;;;11.40;4.53;;;;;;;22.78;26.24;101207.67;125392;1099;104163;-76
2022/05/07 11:07:30;;;;;;;12.13;4.57;;;;;;;22.84;25.75;101204.98;126313;1098;102386;-77
2022/05/07 11:10:01;;;;;;;9.57;4.80;;;;;;;22.86;25.66;101197.86;126499;1098;102151;-75
2022/05/07 11:12:38;;;;;;;11.80;4.87;;;;;;;22.86;25.56;101192.52;126403;1098;101757;-76
2022/05/07 11:15:23;;;;;;;8.83;4.40;;;;;;;22.85;26.00;101201.42;125271;1099;103312;-76
2022/05/07 11:17:54;;;;;;;9.40;4.60;;;;;;;22.74;25.13;101197.91;126788;1098;104207;-76
2022/05/07 11:20:33;;;;;;;11.87;4.30;;;;;;;22.79;25.96;101194.30;125215;1099;104201;-76
2022/05/07 11:23:05;;;;;;;11.37;4.33;;;;;;;22.85;25.29;101193.39;125376;1099;104265;-76
2022/05/07 11:25:40;;;;;;;12.80;4.85;;;;;;;22.83;25.00;101195.20;126370;1096;112861;-77
2022/05/07 11:28:12;;;;;;;12.53;4.43;;;;;;;22.84;25.29;101196.08;125188;1099;102368;-76
2022/05/07 11:30:59;;;;;;;10.43;4.58;;;;;;;22.83;25.54;101187.17;126006;1099;104210;-76
2022/05/07 11:33:30;;;;;;;8.70;4.50;;;;;;;22.87;25.47;101180.89;124935;1099;104261;-77
2022/05/07 11:36:08;;;;;;;9.93;4.40;;;;;;;22.90;25.57;101180.88;125555;1099;104261;-76
2022/05/07 11:38:48;;;;;;;9.53;4.20;;;;;;;22.87;25.32;101182.69;125588;1097;104166;-77
2022/05/07 11:41:37;;;;;;;10.30;4.57;;;;;;;22.79;25.97;101180.92;126575;1099;102337;-77
2022/05/07 11:47:01;;;;;;;8.77;4.17;;;;;;;22.76;25.64;101170.23;125262;1099;102739;-76
2022/05/07 11:49:41;;;;;;;12.18;4.72;;;;;;;22.80;25.68;101165.78;125138;1099;104200;-77
2022/05/07 11:52:14;;;;;;;11.53;4.80;;;;;;;22.84;25.56;101159.50;125266;1099;104310;-76
2022/05/07 11:54:54;;;;;;;8.68;4.70;;;;;;;22.89;25.71;101164.83;125160;1097;105441;-77
2022/05/07 11:57:35;;;;;;;9.23;4.60;;;;;;;22.95;26.24;101154.09;125235;1099;104157;-76
2022/05/07 12:00:18;;;;;;;10.03;4.73;;;;;;;22.96;26.10;101151.41;127709;1097;102027;-76
2022/05/07 12:02:58;;;;;;;9.97;4.67;;;;;;;23.01;26.07;101153.19;125481;1099;104322;-77
2022/05/07 12:05:39;;;;;;;9.15;4.30;;;;;;;23.08;25.69;101160.30;125057;1099;102266;-77
2022/05/07 12:08:17;;;;;;;10.10;4.70;;;;;;;23.25;25.60;101147.73;125139;1099;104235;-77
2022/05/07 12:10:57;;;;;;;11.07;4.60;;;;;;;23.36;25.83;101136.95;125328;1099;103306;-78
2022/05/07 12:13:29;;;;;;;11.17;4.43;;;;;;;23.40;25.97;101130.65;124889;1099;104143;-76
2022/05/07 12:18:53;;;;;;;9.63;4.40;;;;;;;23.40;26.07;101130.65;125105;1099;102126;-76
2022/05/07 12:29:54;;;;;;;11.00;4.53;;;;;;;23.41;25.69;101126.20;126253;1096;104178;-76